sensor_id;sensor_type;location;lat;lon;timestamp;P1;durP1;ratioP1;P2;durP2;ratioP2
64799;SDS011;51233;51.982;4.594;2023-08-30T00:00:57;3.97;;;3.53;;
64799;SDS011;51233;51.982;4.594;2023-08-30T00:03:57;4.15;;;3.15;;
64799;SDS011;51233;51.982;4.594;2023-08-30T00:06:57;4.63;;;3.37;;
64799;SDS011;51233;51.982;4.594;2023-08-30T00:09:58;4.47;;;3.50;;
64799;SDS011;51233;51.982;4.594;2023-08-30T00:12:58;4.43;;;3.40;;
64799;SDS011;51233;51.982;4.594;2023-08-30T00:15:58;5.70;;;3.63;;
64799;SDS011;51233;51.982;4.594;2023-08-30T00:18:59;6.17;;;3.80;;
64799;SDS011;51233;51.982;4.594;2023-08-30T00:21:59;4.80;;;4.30;;
64799;SDS011;51233;51.982;4.594;2023-08-30T00:25:00;4.90;;;3.65;;
64799;SDS011;51233;51.982;4.594;2023-08-30T00:28:00;4.60;;;4.17;;
64799;SDS011;51233;51.982;4.594;2023-08-30T00:31:00;4.03;;;3.63;;
64799;SDS011;51233;51.982;4.594;2023-08-30T00:34:00;4.93;;;4.07;;
64799;SDS011;51233;51.982;4.594;2023-08-30T00:37:00;5.75;;;4.65;;
64799;SDS011;51233;51.982;4.594;2023-08-30T00:40:08;4.57;;;4.18;;
64799;SDS011;51233;51.982;4.594;2023-08-30T00:43:09;5.20;;;4.37;;
64799;SDS011;51233;51.982;4.594;2023-08-30T00:46:09;5.75;;;4.05;;
64799;SDS011;51233;51.982;4.594;2023-08-30T00:49:09;4.80;;;4.30;;
64799;SDS011;51233;51.982;4.594;2023-08-30T00:52:10;4.70;;;4.20;;
64799;SDS011;51233;51.982;4.594;2023-08-30T00:55:10;4.63;;;4.20;;
64799;SDS011;51233;51.982;4.594;2023-08-30T00:58:10;5.73;;;4.37;;
64799;SDS011;51233;51.982;4.594;2023-08-30T01:01:11;7.43;;;4.50;;
64799;SDS011;51233;51.982;4.594;2023-08-30T01:04:14;6.55;;;4.38;;
64799;SDS011;51233;51.982;4.594;2023-08-30T01:07:14;6.43;;;4.80;;
64799;SDS011;51233;51.982;4.594;2023-08-30T01:10:14;5.72;;;4.75;;
64799;SDS011;51233;51.982;4.594;2023-08-30T01:13:16;6.87;;;5.10;;
64799;SDS011;51233;51.982;4.594;2023-08-30T01:16:18;5.38;;;4.88;;
64799;SDS011;51233;51.982;4.594;2023-08-30T01:19:27;5.15;;;4.65;;
64799;SDS011;51233;51.982;4.594;2023-08-30T01:25:57;7.47;;;5.00;;
64799;SDS011;51233;51.982;4.594;2023-08-30T01:29:03;5.90;;;5.30;;
64799;SDS011;51233;51.982;4.594;2023-08-30T01:32:04;5.00;;;4.50;;
64799;SDS011;51233;51.982;4.594;2023-08-30T01:35:08;5.80;;;4.70;;
64799;SDS011;51233;51.982;4.594;2023-08-30T01:38:09;6.13;;;5.07;;
64799;SDS011;51233;51.982;4.594;2023-08-30T01:41:09;8.17;;;5.03;;
64799;SDS011;51233;51.982;4.594;2023-08-30T01:44:10;6.47;;;5.70;;
64799;SDS011;51233;51.982;4.594;2023-08-30T01:47:11;7.45;;;5.72;;
64799;SDS011;51233;51.982;4.594;2023-08-30T01:50:12;7.20;;;5.50;;
64799;SDS011;51233;51.982;4.594;2023-08-30T01:53:12;7.77;;;5.47;;
64799;SDS011;51233;51.982;4.594;2023-08-30T01:56:13;5.70;;;5.07;;
64799;SDS011;51233;51.982;4.594;2023-08-30T01:59:13;5.77;;;5.00;;
64799;SDS011;51233;51.982;4.594;2023-08-30T02:02:16;6.45;;;5.30;;
64799;SDS011;51233;51.982;4.594;2023-08-30T02:05:16;7.63;;;5.30;;
64799;SDS011;51233;51.982;4.594;2023-08-30T02:08:17;5.20;;;4.70;;
64799;SDS011;51233;51.982;4.594;2023-08-30T02:11:19;9.53;;;5.43;;
64799;SDS011;51233;51.982;4.594;2023-08-30T02:14:19;7.22;;;4.93;;
64799;SDS011;51233;51.982;4.594;2023-08-30T02:17:20;5.43;;;4.93;;
64799;SDS011;51233;51.982;4.594;2023-08-30T02:20:20;6.73;;;4.97;;
64799;SDS011;51233;51.982;4.594;2023-08-30T02:23:22;7.33;;;5.03;;
64799;SDS011;51233;51.982;4.594;2023-08-30T02:26:23;5.90;;;5.10;;
64799;SDS011;51233;51.982;4.594;2023-08-30T02:29:23;5.77;;;5.17;;
64799;SDS011;51233;51.982;4.594;2023-08-30T02:32:23;6.30;;;5.23;;
64799;SDS011;51233;51.982;4.594;2023-08-30T02:35:24;5.40;;;4.90;;
64799;SDS011;51233;51.982;4.594;2023-08-30T02:38:24;7.73;;;5.03;;
64799;SDS011;51233;51.982;4.594;2023-08-30T02:41:24;5.10;;;4.50;;
64799;SDS011;51233;51.982;4.594;2023-08-30T02:44:24;5.33;;;4.83;;
64799;SDS011;51233;51.982;4.594;2023-08-30T02:47:24;6.80;;;5.57;;
64799;SDS011;51233;51.982;4.594;2023-08-30T02:50:25;6.73;;;5.57;;
64799;SDS011;51233;51.982;4.594;2023-08-30T02:53:25;6.82;;;5.35;;
64799;SDS011;51233;51.982;4.594;2023-08-30T02:56:25;5.93;;;5.13;;
64799;SDS011;51233;51.982;4.594;2023-08-30T02:59:29;8.50;;;5.53;;
64799;SDS011;51233;51.982;4.594;2023-08-30T03:02:35;8.18;;;5.93;;
64799;SDS011;51233;51.982;4.594;2023-08-30T03:05:35;8.33;;;6.10;;
64799;SDS011;51233;51.982;4.594;2023-08-30T03:08:36;7.97;;;5.30;;
64799;SDS011;51233;51.982;4.594;2023-08-30T03:11:36;7.87;;;6.23;;
64799;SDS011;51233;51.982;4.594;2023-08-30T03:14:36;12.70;;;6.33;;
64799;SDS011;51233;51.982;4.594;2023-08-30T03:17:36;8.63;;;5.63;;
64799;SDS011;51233;51.982;4.594;2023-08-30T03:20:37;8.07;;;6.00;;
64799;SDS011;51233;51.982;4.594;2023-08-30T03:23:40;7.25;;;6.13;;
64799;SDS011;51233;51.982;4.594;2023-08-30T03:26:42;6.67;;;5.30;;
64799;SDS011;51233;51.982;4.594;2023-08-30T03:32:42;6.75;;;5.40;;
64799;SDS011;51233;51.982;4.594;2023-08-30T03:35:43;8.80;;;6.13;;
64799;SDS011;51233;51.982;4.594;2023-08-30T03:38:43;7.20;;;6.07;;
64799;SDS011;51233;51.982;4.594;2023-08-30T03:41:44;7.63;;;5.70;;
64799;SDS011;51233;51.982;4.594;2023-08-30T03:44:45;6.85;;;6.15;;
64799;SDS011;51233;51.982;4.594;2023-08-30T03:47:48;6.78;;;6.10;;
64799;SDS011;51233;51.982;4.594;2023-08-30T03:50:48;6.65;;;5.82;;
64799;SDS011;51233;51.982;4.594;2023-08-30T03:53:49;8.00;;;6.27;;
64799;SDS011;51233;51.982;4.594;2023-08-30T03:56:49;9.57;;;6.22;;
64799;SDS011;51233;51.982;4.594;2023-08-30T03:59:49;7.27;;;6.07;;
64799;SDS011;51233;51.982;4.594;2023-08-30T04:02:49;7.93;;;6.13;;
64799;SDS011;51233;51.982;4.594;2023-08-30T04:05:56;9.67;;;7.20;;
64799;SDS011;51233;51.982;4.594;2023-08-30T04:08:59;8.40;;;6.00;;
64799;SDS011;51233;51.982;4.594;2023-08-30T04:11:59;8.55;;;6.55;;
64799;SDS011;51233;51.982;4.594;2023-08-30T04:15:03;8.13;;;6.63;;
64799;SDS011;51233;51.982;4.594;2023-08-30T04:18:04;8.30;;;6.53;;
64799;SDS011;51233;51.982;4.594;2023-08-30T04:21:04;10.23;;;6.77;;
64799;SDS011;51233;51.982;4.594;2023-08-30T04:27:06;8.77;;;6.43;;
64799;SDS011;51233;51.982;4.594;2023-08-30T04:30:06;12.20;;;6.93;;
64799;SDS011;51233;51.982;4.594;2023-08-30T04:33:06;8.10;;;7.00;;
64799;SDS011;51233;51.982;4.594;2023-08-30T04:36:07;15.67;;;7.33;;
64799;SDS011;51233;51.982;4.594;2023-08-30T04:39:07;9.07;;;7.03;;
64799;SDS011;51233;51.982;4.594;2023-08-30T04:42:10;9.03;;;7.53;;
64799;SDS011;51233;51.982;4.594;2023-08-30T04:45:11;13.82;;;6.88;;
64799;SDS011;51233;51.982;4.594;2023-08-30T04:48:11;11.18;;;6.80;;
64799;SDS011;51233;51.982;4.594;2023-08-30T04:51:11;9.47;;;6.73;;
64799;SDS011;51233;51.982;4.594;2023-08-30T04:54:11;11.93;;;7.07;;
64799;SDS011;51233;51.982;4.594;2023-08-30T04:57:12;9.77;;;7.17;;
64799;SDS011;51233;51.982;4.594;2023-08-30T05:00:14;12.48;;;7.72;;
64799;SDS011;51233;51.982;4.594;2023-08-30T05:03:14;9.33;;;6.77;;
64799;SDS011;51233;51.982;4.594;2023-08-30T05:06:15;8.10;;;7.00;;
64799;SDS011;51233;51.982;4.594;2023-08-30T05:09:16;8.90;;;8.00;;
64799;SDS011;51233;51.982;4.594;2023-08-30T05:12:16;10.77;;;7.60;;
64799;SDS011;51233;51.982;4.594;2023-08-30T05:15:16;8.37;;;7.50;;
64799;SDS011;51233;51.982;4.594;2023-08-30T05:18:18;9.23;;;7.53;;
64799;SDS011;51233;51.982;4.594;2023-08-30T05:21:18;8.82;;;6.97;;
64799;SDS011;51233;51.982;4.594;2023-08-30T05:24:21;11.83;;;7.90;;
64799;SDS011;51233;51.982;4.594;2023-08-30T05:27:22;9.02;;;6.97;;
64799;SDS011;51233;51.982;4.594;2023-08-30T05:30:22;11.35;;;8.13;;
64799;SDS011;51233;51.982;4.594;2023-08-30T05:33:22;8.20;;;6.77;;
64799;SDS011;51233;51.982;4.594;2023-08-30T05:36:22;9.73;;;7.43;;
64799;SDS011;51233;51.982;4.594;2023-08-30T05:39:23;9.53;;;6.57;;
64799;SDS011;51233;51.982;4.594;2023-08-30T05:42:23;11.13;;;6.37;;
64799;SDS011;51233;51.982;4.594;2023-08-30T05:45:23;10.47;;;6.50;;
64799;SDS011;51233;51.982;4.594;2023-08-30T05:48:23;7.30;;;6.55;;
64799;SDS011;51233;51.982;4.594;2023-08-30T05:51:24;9.50;;;6.97;;
64799;SDS011;51233;51.982;4.594;2023-08-30T05:54:24;11.70;;;6.63;;
64799;SDS011;51233;51.982;4.594;2023-08-30T05:57:26;9.13;;;6.70;;
64799;SDS011;51233;51.982;4.594;2023-08-30T06:00:28;8.50;;;6.20;;
64799;SDS011;51233;51.982;4.594;2023-08-30T06:03:29;9.35;;;6.00;;
64799;SDS011;51233;51.982;4.594;2023-08-30T06:06:29;7.40;;;5.73;;
64799;SDS011;51233;51.982;4.594;2023-08-30T06:09:29;9.50;;;5.97;;
64799;SDS011;51233;51.982;4.594;2023-08-30T06:12:29;6.07;;;5.47;;
64799;SDS011;51233;51.982;4.594;2023-08-30T06:15:30;9.73;;;5.90;;
64799;SDS011;51233;51.982;4.594;2023-08-30T06:18:30;7.67;;;5.97;;
64799;SDS011;51233;51.982;4.594;2023-08-30T06:21:32;7.60;;;5.22;;
64799;SDS011;51233;51.982;4.594;2023-08-30T06:24:32;5.90;;;5.37;;
64799;SDS011;51233;51.982;4.594;2023-08-30T06:27:32;6.40;;;4.90;;
64799;SDS011;51233;51.982;4.594;2023-08-30T06:30:32;6.20;;;5.50;;
64799;SDS011;51233;51.982;4.594;2023-08-30T06:33:33;6.07;;;5.47;;
64799;SDS011;51233;51.982;4.594;2023-08-30T06:36:33;6.43;;;5.60;;
64799;SDS011;51233;51.982;4.594;2023-08-30T06:39:33;5.80;;;5.27;;
64799;SDS011;51233;51.982;4.594;2023-08-30T06:42:34;7.10;;;6.40;;
64799;SDS011;51233;51.982;4.594;2023-08-30T06:45:35;6.60;;;5.90;;
64799;SDS011;51233;51.982;4.594;2023-08-30T06:48:41;7.23;;;6.10;;
64799;SDS011;51233;51.982;4.594;2023-08-30T06:51:41;8.90;;;6.00;;
64799;SDS011;51233;51.982;4.594;2023-08-30T06:54:41;5.68;;;5.07;;
64799;SDS011;51233;51.982;4.594;2023-08-30T06:57:46;6.50;;;5.43;;
64799;SDS011;51233;51.982;4.594;2023-08-30T07:00:49;6.38;;;5.38;;
64799;SDS011;51233;51.982;4.594;2023-08-30T07:03:50;6.80;;;5.60;;
64799;SDS011;51233;51.982;4.594;2023-08-30T07:06:50;7.23;;;5.30;;
64799;SDS011;51233;51.982;4.594;2023-08-30T07:09:50;5.00;;;4.57;;
64799;SDS011;51233;51.982;4.594;2023-08-30T07:12:51;7.73;;;4.30;;
64799;SDS011;51233;51.982;4.594;2023-08-30T07:15:51;4.50;;;4.10;;
64799;SDS011;51233;51.982;4.594;2023-08-30T07:18:51;4.60;;;4.20;;
64799;SDS011;51233;51.982;4.594;2023-08-30T07:21:51;4.50;;;4.10;;
64799;SDS011;51233;51.982;4.594;2023-08-30T07:24:51;4.27;;;3.87;;
64799;SDS011;51233;51.982;4.594;2023-08-30T07:27:52;5.63;;;4.03;;
64799;SDS011;51233;51.982;4.594;2023-08-30T07:30:52;6.70;;;3.58;;
64799;SDS011;51233;51.982;4.594;2023-08-30T07:33:52;3.77;;;3.40;;
64799;SDS011;51233;51.982;4.594;2023-08-30T07:36:53;3.77;;;3.20;;
64799;SDS011;51233;51.982;4.594;2023-08-30T07:39:54;3.08;;;2.85;;
64799;SDS011;51233;51.982;4.594;2023-08-30T07:42:54;4.83;;;3.17;;
64799;SDS011;51233;51.982;4.594;2023-08-30T07:45:58;2.70;;;2.50;;
64799;SDS011;51233;51.982;4.594;2023-08-30T07:48:58;2.90;;;2.60;;
64799;SDS011;51233;51.982;4.594;2023-08-30T07:51:59;2.70;;;2.50;;
64799;SDS011;51233;51.982;4.594;2023-08-30T07:55:02;2.88;;;2.67;;
64799;SDS011;51233;51.982;4.594;2023-08-30T07:58:02;2.90;;;2.50;;
64799;SDS011;51233;51.982;4.594;2023-08-30T08:01:03;2.70;;;2.50;;
64799;SDS011;51233;51.982;4.594;2023-08-30T08:04:03;2.77;;;2.57;;
64799;SDS011;51233;51.982;4.594;2023-08-30T08:07:03;3.17;;;2.87;;
64799;SDS011;51233;51.982;4.594;2023-08-30T08:10:04;3.17;;;2.80;;
64799;SDS011;51233;51.982;4.594;2023-08-30T08:13:05;4.60;;;3.50;;
64799;SDS011;51233;51.982;4.594;2023-08-30T08:16:05;6.00;;;3.83;;
64799;SDS011;51233;51.982;4.594;2023-08-30T08:19:05;5.00;;;2.87;;
64799;SDS011;51233;51.982;4.594;2023-08-30T08:22:07;2.90;;;2.70;;
64799;SDS011;51233;51.982;4.594;2023-08-30T08:25:07;3.20;;;3.00;;
64799;SDS011;51233;51.982;4.594;2023-08-30T08:28:10;3.63;;;3.30;;
64799;SDS011;51233;51.982;4.594;2023-08-30T08:31:10;3.58;;;3.28;;
64799;SDS011;51233;51.982;4.594;2023-08-30T08:34:11;3.67;;;3.37;;
64799;SDS011;51233;51.982;4.594;2023-08-30T08:37:12;3.35;;;3.13;;
64799;SDS011;51233;51.982;4.594;2023-08-30T08:40:12;2.88;;;2.67;;
64799;SDS011;51233;51.982;4.594;2023-08-30T08:43:12;3.90;;;3.50;;
64799;SDS011;51233;51.982;4.594;2023-08-30T08:46:12;3.30;;;3.00;;
64799;SDS011;51233;51.982;4.594;2023-08-30T08:49:16;4.33;;;3.67;;
64799;SDS011;51233;51.982;4.594;2023-08-30T08:52:16;3.65;;;3.35;;
64799;SDS011;51233;51.982;4.594;2023-08-30T08:55:17;3.00;;;2.80;;
64799;SDS011;51233;51.982;4.594;2023-08-30T08:58:17;3.20;;;3.00;;
64799;SDS011;51233;51.982;4.594;2023-08-30T09:01:17;4.53;;;2.70;;
64799;SDS011;51233;51.982;4.594;2023-08-30T09:04:18;2.30;;;2.10;;
64799;SDS011;51233;51.982;4.594;2023-08-30T09:07:18;3.43;;;2.10;;
64799;SDS011;51233;51.982;4.594;2023-08-30T09:10:20;2.85;;;1.83;;
64799;SDS011;51233;51.982;4.594;2023-08-30T09:13:20;2.53;;;1.73;;
64799;SDS011;51233;51.982;4.594;2023-08-30T09:16:22;1.75;;;1.65;;
64799;SDS011;51233;51.982;4.594;2023-08-30T09:19:26;0.87;;;0.87;;
64799;SDS011;51233;51.982;4.594;2023-08-30T09:22:35;1.50;;;1.13;;
64799;SDS011;51233;51.982;4.594;2023-08-30T09:25:35;3.63;;;1.58;;
64799;SDS011;51233;51.982;4.594;2023-08-30T09:28:41;3.37;;;1.87;;
64799;SDS011;51233;51.982;4.594;2023-08-30T09:31:41;2.35;;;1.30;;
64799;SDS011;51233;51.982;4.594;2023-08-30T09:34:45;9.50;;;1.90;;
64799;SDS011;51233;51.982;4.594;2023-08-30T09:37:45;1.60;;;1.25;;
64799;SDS011;51233;51.982;4.594;2023-08-30T09:40:51;3.78;;;1.60;;
64799;SDS011;51233;51.982;4.594;2023-08-30T09:43:52;6.20;;;2.08;;
64799;SDS011;51233;51.982;4.594;2023-08-30T09:46:54;4.63;;;1.45;;
64799;SDS011;51233;51.982;4.594;2023-08-30T09:49:55;3.07;;;1.67;;
64799;SDS011;51233;51.982;4.594;2023-08-30T09:52:56;2.07;;;1.20;;
64799;SDS011;51233;51.982;4.594;2023-08-30T09:55:56;2.83;;;1.10;;
64799;SDS011;51233;51.982;4.594;2023-08-30T10:01:59;1.20;;;1.10;;
64799;SDS011;51233;51.982;4.594;2023-08-30T10:05:02;1.55;;;1.40;;
64799;SDS011;51233;51.982;4.594;2023-08-30T10:08:03;4.77;;;1.67;;
64799;SDS011;51233;51.982;4.594;2023-08-30T10:11:04;5.55;;;1.65;;
64799;SDS011;51233;51.982;4.594;2023-08-30T10:14:05;2.85;;;1.50;;
64799;SDS011;51233;51.982;4.594;2023-08-30T10:17:06;5.95;;;1.90;;
64799;SDS011;51233;51.982;4.594;2023-08-30T10:20:09;9.75;;;2.45;;
64799;SDS011;51233;51.982;4.594;2023-08-30T10:23:10;6.83;;;2.30;;
64799;SDS011;51233;51.982;4.594;2023-08-30T10:26:11;9.18;;;2.30;;
64799;SDS011;51233;51.982;4.594;2023-08-30T10:29:14;7.30;;;2.55;;
64799;SDS011;51233;51.982;4.594;2023-08-30T10:35:17;5.72;;;2.28;;
64799;SDS011;51233;51.982;4.594;2023-08-30T10:38:24;8.05;;;2.47;;
64799;SDS011;51233;51.982;4.594;2023-08-30T10:41:25;6.28;;;2.92;;
64799;SDS011;51233;51.982;4.594;2023-08-30T10:44:25;6.10;;;2.83;;
64799;SDS011;51233;51.982;4.594;2023-08-30T10:47:26;7.67;;;2.50;;
64799;SDS011;51233;51.982;4.594;2023-08-30T10:50:29;5.60;;;2.53;;
64799;SDS011;51233;51.982;4.594;2023-08-30T10:56:30;8.60;;;2.35;;
64799;SDS011;51233;51.982;4.594;2023-08-30T10:59:31;2.93;;;0.93;;
64799;SDS011;51233;51.982;4.594;2023-08-30T11:02:34;3.13;;;1.33;;
64799;SDS011;51233;51.982;4.594;2023-08-30T11:05:34;5.28;;;1.73;;
64799;SDS011;51233;51.982;4.594;2023-08-30T11:08:35;6.50;;;1.60;;
64799;SDS011;51233;51.982;4.594;2023-08-30T11:11:36;3.77;;;1.33;;
64799;SDS011;51233;51.982;4.594;2023-08-30T11:14:37;6.18;;;1.70;;
64799;SDS011;51233;51.982;4.594;2023-08-30T11:17:41;6.05;;;1.73;;
64799;SDS011;51233;51.982;4.594;2023-08-30T11:20:41;6.97;;;1.65;;
64799;SDS011;51233;51.982;4.594;2023-08-30T11:23:48;9.13;;;1.50;;
64799;SDS011;51233;51.982;4.594;2023-08-30T11:26:52;7.47;;;1.98;;
64799;SDS011;51233;51.982;4.594;2023-08-30T11:29:52;7.38;;;1.92;;
64799;SDS011;51233;51.982;4.594;2023-08-30T11:32:52;8.23;;;1.87;;
64799;SDS011;51233;51.982;4.594;2023-08-30T11:35:54;7.03;;;2.15;;
64799;SDS011;51233;51.982;4.594;2023-08-30T11:38:54;8.23;;;2.13;;
64799;SDS011;51233;51.982;4.594;2023-08-30T11:44:57;4.60;;;1.80;;
64799;SDS011;51233;51.982;4.594;2023-08-30T11:47:58;10.82;;;2.30;;
64799;SDS011;51233;51.982;4.594;2023-08-30T11:50:59;1.38;;;1.08;;
64799;SDS011;51233;51.982;4.594;2023-08-30T11:53:59;5.93;;;1.60;;
64799;SDS011;51233;51.982;4.594;2023-08-30T11:57:02;5.45;;;2.00;;
64799;SDS011;51233;51.982;4.594;2023-08-30T12:00:06;6.28;;;1.83;;
64799;SDS011;51233;51.982;4.594;2023-08-30T12:03:07;1.02;;;0.93;;
64799;SDS011;51233;51.982;4.594;2023-08-30T12:06:13;7.60;;;2.33;;
64799;SDS011;51233;51.982;4.594;2023-08-30T12:09:14;6.70;;;1.77;;
64799;SDS011;51233;51.982;4.594;2023-08-30T12:12:15;5.13;;;1.80;;
64799;SDS011;51233;51.982;4.594;2023-08-30T12:15:15;2.07;;;1.13;;
64799;SDS011;51233;51.982;4.594;2023-08-30T12:18:16;2.47;;;1.05;;
64799;SDS011;51233;51.982;4.594;2023-08-30T12:21:16;6.70;;;1.93;;
64799;SDS011;51233;51.982;4.594;2023-08-30T12:24:17;4.87;;;1.60;;
64799;SDS011;51233;51.982;4.594;2023-08-30T12:27:17;4.85;;;1.52;;
64799;SDS011;51233;51.982;4.594;2023-08-30T12:30:18;5.00;;;1.45;;
64799;SDS011;51233;51.982;4.594;2023-08-30T12:33:18;8.57;;;2.17;;
64799;SDS011;51233;51.982;4.594;2023-08-30T12:36:19;7.33;;;2.03;;
64799;SDS011;51233;51.982;4.594;2023-08-30T12:39:19;3.97;;;1.40;;
64799;SDS011;51233;51.982;4.594;2023-08-30T12:42:19;3.40;;;1.50;;
64799;SDS011;51233;51.982;4.594;2023-08-30T12:45:19;4.27;;;1.47;;
64799;SDS011;51233;51.982;4.594;2023-08-30T12:48:19;4.78;;;1.55;;
64799;SDS011;51233;51.982;4.594;2023-08-30T12:51:20;4.43;;;1.40;;
64799;SDS011;51233;51.982;4.594;2023-08-30T12:54:20;6.43;;;1.80;;
64799;SDS011;51233;51.982;4.594;2023-08-30T12:57:20;4.80;;;1.67;;
64799;SDS011;51233;51.982;4.594;2023-08-30T13:00:20;4.57;;;1.70;;
64799;SDS011;51233;51.982;4.594;2023-08-30T13:03:21;2.53;;;1.10;;
64799;SDS011;51233;51.982;4.594;2023-08-30T13:06:21;4.32;;;1.42;;
64799;SDS011;51233;51.982;4.594;2023-08-30T13:09:21;3.63;;;1.17;;
64799;SDS011;51233;51.982;4.594;2023-08-30T13:12:21;3.72;;;1.10;;
64799;SDS011;51233;51.982;4.594;2023-08-30T13:15:21;2.77;;;1.10;;
64799;SDS011;51233;51.982;4.594;2023-08-30T13:18:22;2.17;;;1.10;;
64799;SDS011;51233;51.982;4.594;2023-08-30T13:21:22;8.32;;;1.85;;
64799;SDS011;51233;51.982;4.594;2023-08-30T13:24:22;1.97;;;0.97;;
64799;SDS011;51233;51.982;4.594;2023-08-30T13:27:22;3.55;;;1.27;;
64799;SDS011;51233;51.982;4.594;2023-08-30T13:30:24;4.00;;;1.33;;
64799;SDS011;51233;51.982;4.594;2023-08-30T13:33:24;3.87;;;0.80;;
64799;SDS011;51233;51.982;4.594;2023-08-30T13:36:24;3.57;;;1.07;;
64799;SDS011;51233;51.982;4.594;2023-08-30T13:39:24;0.63;;;0.60;;
64799;SDS011;51233;51.982;4.594;2023-08-30T13:42:24;1.90;;;1.07;;
64799;SDS011;51233;51.982;4.594;2023-08-30T13:45:25;1.27;;;0.80;;
64799;SDS011;51233;51.982;4.594;2023-08-30T13:48:25;1.90;;;0.80;;
64799;SDS011;51233;51.982;4.594;2023-08-30T13:51:25;1.40;;;0.67;;
64799;SDS011;51233;51.982;4.594;2023-08-30T13:54:26;2.17;;;0.93;;
64799;SDS011;51233;51.982;4.594;2023-08-30T13:57:26;2.33;;;1.40;;
64799;SDS011;51233;51.982;4.594;2023-08-30T14:00:26;3.23;;;1.30;;
64799;SDS011;51233;51.982;4.594;2023-08-30T14:03:26;2.30;;;0.90;;
64799;SDS011;51233;51.982;4.594;2023-08-30T14:06:27;2.63;;;1.23;;
64799;SDS011;51233;51.982;4.594;2023-08-30T14:09:27;1.67;;;1.10;;
64799;SDS011;51233;51.982;4.594;2023-08-30T14:12:28;5.50;;;1.30;;
64799;SDS011;51233;51.982;4.594;2023-08-30T14:15:28;2.90;;;1.10;;
64799;SDS011;51233;51.982;4.594;2023-08-30T14:18:28;4.60;;;1.30;;
64799;SDS011;51233;51.982;4.594;2023-08-30T14:21:29;1.30;;;0.80;;
64799;SDS011;51233;51.982;4.594;2023-08-30T14:24:29;1.53;;;0.87;;
64799;SDS011;51233;51.982;4.594;2023-08-30T14:27:29;4.73;;;1.33;;
64799;SDS011;51233;51.982;4.594;2023-08-30T14:30:30;2.87;;;1.03;;
64799;SDS011;51233;51.982;4.594;2023-08-30T14:33:30;1.07;;;0.83;;
64799;SDS011;51233;51.982;4.594;2023-08-30T14:36:30;3.27;;;1.57;;
64799;SDS011;51233;51.982;4.594;2023-08-30T14:39:31;1.43;;;0.80;;
64799;SDS011;51233;51.982;4.594;2023-08-30T14:42:31;4.30;;;1.43;;
64799;SDS011;51233;51.982;4.594;2023-08-30T14:45:32;4.20;;;1.35;;
64799;SDS011;51233;51.982;4.594;2023-08-30T14:48:32;1.77;;;0.80;;
64799;SDS011;51233;51.982;4.594;2023-08-30T14:51:32;3.77;;;1.13;;
64799;SDS011;51233;51.982;4.594;2023-08-30T14:54:33;4.88;;;1.58;;
64799;SDS011;51233;51.982;4.594;2023-08-30T14:57:33;1.48;;;1.10;;
64799;SDS011;51233;51.982;4.594;2023-08-30T15:00:33;0.80;;;0.80;;
64799;SDS011;51233;51.982;4.594;2023-08-30T15:03:33;10.80;;;1.27;;
64799;SDS011;51233;51.982;4.594;2023-08-30T15:06:34;4.53;;;1.40;;
64799;SDS011;51233;51.982;4.594;2023-08-30T15:09:34;5.97;;;1.20;;
64799;SDS011;51233;51.982;4.594;2023-08-30T15:12:34;2.40;;;1.23;;
64799;SDS011;51233;51.982;4.594;2023-08-30T15:15:34;3.70;;;1.10;;
64799;SDS011;51233;51.982;4.594;2023-08-30T15:18:34;3.80;;;1.30;;
64799;SDS011;51233;51.982;4.594;2023-08-30T15:21:35;1.23;;;1.00;;
64799;SDS011;51233;51.982;4.594;2023-08-30T15:24:36;3.37;;;1.20;;
64799;SDS011;51233;51.982;4.594;2023-08-30T15:30:38;2.92;;;1.10;;
64799;SDS011;51233;51.982;4.594;2023-08-30T15:33:41;2.90;;;1.15;;
64799;SDS011;51233;51.982;4.594;2023-08-30T15:36:42;2.67;;;0.95;;
64799;SDS011;51233;51.982;4.594;2023-08-30T15:39:42;2.40;;;0.80;;
64799;SDS011;51233;51.982;4.594;2023-08-30T15:42:42;3.40;;;1.30;;
64799;SDS011;51233;51.982;4.594;2023-08-30T15:45:42;2.73;;;1.10;;
64799;SDS011;51233;51.982;4.594;2023-08-30T15:48:43;6.57;;;1.53;;
64799;SDS011;51233;51.982;4.594;2023-08-30T15:51:46;2.03;;;0.70;;
64799;SDS011;51233;51.982;4.594;2023-08-30T15:54:46;4.60;;;1.43;;
64799;SDS011;51233;51.982;4.594;2023-08-30T15:57:49;3.17;;;0.90;;
64799;SDS011;51233;51.982;4.594;2023-08-30T16:00:52;5.25;;;1.05;;
64799;SDS011;51233;51.982;4.594;2023-08-30T16:03:52;0.55;;;0.55;;
64799;SDS011;51233;51.982;4.594;2023-08-30T16:06:52;2.07;;;1.00;;
64799;SDS011;51233;51.982;4.594;2023-08-30T16:09:53;0.53;;;0.53;;
64799;SDS011;51233;51.982;4.594;2023-08-30T16:12:55;3.20;;;1.02;;
64799;SDS011;51233;51.982;4.594;2023-08-30T16:15:55;5.07;;;1.30;;
64799;SDS011;51233;51.982;4.594;2023-08-30T16:18:55;2.47;;;0.90;;
64799;SDS011;51233;51.982;4.594;2023-08-30T16:21:56;1.67;;;0.93;;
64799;SDS011;51233;51.982;4.594;2023-08-30T16:24:56;2.67;;;1.10;;
64799;SDS011;51233;51.982;4.594;2023-08-30T16:27:56;5.90;;;1.43;;
64799;SDS011;51233;51.982;4.594;2023-08-30T16:30:58;2.83;;;1.00;;
64799;SDS011;51233;51.982;4.594;2023-08-30T16:33:59;4.13;;;1.20;;
64799;SDS011;51233;51.982;4.594;2023-08-30T16:36:59;3.05;;;1.05;;
64799;SDS011;51233;51.982;4.594;2023-08-30T16:39:59;5.27;;;1.00;;
64799;SDS011;51233;51.982;4.594;2023-08-30T16:42:59;2.47;;;1.00;;
64799;SDS011;51233;51.982;4.594;2023-08-30T16:46:00;3.97;;;1.30;;
64799;SDS011;51233;51.982;4.594;2023-08-30T16:49:03;3.07;;;1.17;;
64799;SDS011;51233;51.982;4.594;2023-08-30T16:52:03;2.90;;;1.00;;
64799;SDS011;51233;51.982;4.594;2023-08-30T16:55:04;2.73;;;0.90;;
64799;SDS011;51233;51.982;4.594;2023-08-30T16:58:04;2.73;;;0.90;;
64799;SDS011;51233;51.982;4.594;2023-08-30T17:01:07;2.42;;;1.02;;
64799;SDS011;51233;51.982;4.594;2023-08-30T17:04:08;3.13;;;1.02;;
64799;SDS011;51233;51.982;4.594;2023-08-30T17:07:10;2.97;;;1.00;;
64799;SDS011;51233;51.982;4.594;2023-08-30T17:10:10;3.80;;;1.00;;
64799;SDS011;51233;51.982;4.594;2023-08-30T17:13:13;1.77;;;1.00;;
64799;SDS011;51233;51.982;4.594;2023-08-30T17:16:13;1.20;;;0.80;;
64799;SDS011;51233;51.982;4.594;2023-08-30T17:19:13;2.45;;;1.00;;
64799;SDS011;51233;51.982;4.594;2023-08-30T17:22:14;2.57;;;1.00;;
64799;SDS011;51233;51.982;4.594;2023-08-30T17:25:17;3.47;;;1.07;;
64799;SDS011;51233;51.982;4.594;2023-08-30T17:28:17;2.78;;;1.02;;
64799;SDS011;51233;51.982;4.594;2023-08-30T17:31:17;3.00;;;0.80;;
64799;SDS011;51233;51.982;4.594;2023-08-30T17:34:23;1.75;;;0.77;;
64799;SDS011;51233;51.982;4.594;2023-08-30T17:37:23;2.63;;;1.02;;
64799;SDS011;51233;51.982;4.594;2023-08-30T17:40:23;2.72;;;1.15;;
64799;SDS011;51233;51.982;4.594;2023-08-30T17:43:24;3.53;;;0.77;;
64799;SDS011;51233;51.982;4.594;2023-08-30T17:46:25;2.45;;;1.08;;
64799;SDS011;51233;51.982;4.594;2023-08-30T17:49:26;4.30;;;1.15;;
64799;SDS011;51233;51.982;4.594;2023-08-30T17:52:26;0.90;;;0.57;;
64799;SDS011;51233;51.982;4.594;2023-08-30T17:55:26;5.43;;;1.07;;
64799;SDS011;51233;51.982;4.594;2023-08-30T17:58:27;1.60;;;0.80;;
64799;SDS011;51233;51.982;4.594;2023-08-30T18:01:27;2.57;;;0.73;;
64799;SDS011;51233;51.982;4.594;2023-08-30T18:04:30;7.20;;;0.93;;
64799;SDS011;51233;51.982;4.594;2023-08-30T18:07:31;3.37;;;1.20;;
64799;SDS011;51233;51.982;4.594;2023-08-30T18:10:31;4.07;;;1.10;;
64799;SDS011;51233;51.982;4.594;2023-08-30T18:13:34;3.42;;;1.15;;
64799;SDS011;51233;51.982;4.594;2023-08-30T18:16:34;2.90;;;1.00;;
64799;SDS011;51233;51.982;4.594;2023-08-30T18:19:41;3.87;;;1.00;;
64799;SDS011;51233;51.982;4.594;2023-08-30T18:22:41;1.23;;;0.80;;
64799;SDS011;51233;51.982;4.594;2023-08-30T18:25:44;1.60;;;0.77;;
64799;SDS011;51233;51.982;4.594;2023-08-30T18:28:45;3.28;;;1.02;;
64799;SDS011;51233;51.982;4.594;2023-08-30T18:31:45;4.00;;;1.20;;
64799;SDS011;51233;51.982;4.594;2023-08-30T18:34:46;0.85;;;0.70;;